sensor_id;sensor_type;location;lat;lon;timestamp;temperature;humidity
21722;DHT22;11023;48.274;7.794;2023-07-30T00:01:37;19.70;99.90
21722;DHT22;11023;48.274;7.794;2023-07-30T00:04:05;19.70;99.90
21722;DHT22;11023;48.274;7.794;2023-07-30T00:06:55;19.70;99.90
21722;DHT22;11023;48.274;7.794;2023-07-30T00:09:23;19.70;99.90
21722;DHT22;11023;48.274;7.794;2023-07-30T00:11:52;19.70;99.90
21722;DHT22;11023;48.274;7.794;2023-07-30T00:14:23;19.70;99.90
21722;DHT22;11023;48.274;7.794;2023-07-30T00:17:00;19.60;99.90
21722;DHT22;11023;48.274;7.794;2023-07-30T00:19:28;19.40;99.90
21722;DHT22;11023;48.274;7.794;2023-07-30T00:21:57;19.40;99.90
21722;DHT22;11023;48.274;7.794;2023-07-30T00:24:25;19.30;99.90
21722;DHT22;11023;48.274;7.794;2023-07-30T00:26:51;19.20;99.90
21722;DHT22;11023;48.274;7.794;2023-07-30T00:29:20;19.30;99.90
21722;DHT22;11023;48.274;7.794;2023-07-30T00:31:51;19.30;99.90
21722;DHT22;11023;48.274;7.794;2023-07-30T00:34:34;19.30;99.90
21722;DHT22;11023;48.274;7.794;2023-07-30T00:37:03;19.30;99.90
21722;DHT22;11023;48.274;7.794;2023-07-30T00:39:29;19.30;99.90
21722;DHT22;11023;48.274;7.794;2023-07-30T00:41:57;19.40;99.90
21722;DHT22;11023;48.274;7.794;2023-07-30T00:44:23;19.40;99.90
21722;DHT22;11023;48.274;7.794;2023-07-30T00:46:49;19.40;99.90
21722;DHT22;11023;48.274;7.794;2023-07-30T00:49:15;19.30;99.90
21722;DHT22;11023;48.274;7.794;2023-07-30T00:51:42;19.30;99.90
21722;DHT22;11023;48.274;7.794;2023-07-30T00:54:08;19.30;99.90
21722;DHT22;11023;48.274;7.794;2023-07-30T00:56:37;19.30;99.90
21722;DHT22;11023;48.274;7.794;2023-07-30T00:59:04;19.30;99.90
21722;DHT22;11023;48.274;7.794;2023-07-30T01:01:33;19.30;99.90
21722;DHT22;11023;48.274;7.794;2023-07-30T01:04:01;19.30;99.90
21722;DHT22;11023;48.274;7.794;2023-07-30T01:06:27;19.30;99.90
21722;DHT22;11023;48.274;7.794;2023-07-30T01:08:53;19.30;99.90
21722;DHT22;11023;48.274;7.794;2023-07-30T01:11:20;19.30;99.90
21722;DHT22;11023;48.274;7.794;2023-07-30T01:13:46;19.30;99.90
21722;DHT22;11023;48.274;7.794;2023-07-30T01:16:12;19.40;99.90
21722;DHT22;11023;48.274;7.794;2023-07-30T01:18:38;19.30;99.90
21722;DHT22;11023;48.274;7.794;2023-07-30T01:21:04;19.30;99.90
21722;DHT22;11023;48.274;7.794;2023-07-30T01:23:30;19.40;99.90
21722;DHT22;11023;48.274;7.794;2023-07-30T01:26:10;19.40;99.90
21722;DHT22;11023;48.274;7.794;2023-07-30T01:28:48;19.40;99.90
21722;DHT22;11023;48.274;7.794;2023-07-30T01:31:16;19.40;99.90
21722;DHT22;11023;48.274;7.794;2023-07-30T01:33:43;19.40;99.90
21722;DHT22;11023;48.274;7.794;2023-07-30T01:36:12;19.40;99.90
21722;DHT22;11023;48.274;7.794;2023-07-30T01:38:40;19.40;99.90
21722;DHT22;11023;48.274;7.794;2023-07-30T01:41:07;19.40;99.90
21722;DHT22;11023;48.274;7.794;2023-07-30T01:43:33;19.40;99.90
21722;DHT22;11023;48.274;7.794;2023-07-30T01:45:59;19.50;99.90
21722;DHT22;11023;48.274;7.794;2023-07-30T01:48:26;19.50;99.90
21722;DHT22;11023;48.274;7.794;2023-07-30T01:50:53;19.50;99.90
21722;DHT22;11023;48.274;7.794;2023-07-30T01:53:19;19.50;99.90
21722;DHT22;11023;48.274;7.794;2023-07-30T01:55:46;19.50;99.90
21722;DHT22;11023;48.274;7.794;2023-07-30T01:58:12;19.50;99.90
21722;DHT22;11023;48.274;7.794;2023-07-30T02:00:39;19.50;99.90
21722;DHT22;11023;48.274;7.794;2023-07-30T02:03:05;19.50;99.90
21722;DHT22;11023;48.274;7.794;2023-07-30T02:05:31;19.50;99.90
21722;DHT22;11023;48.274;7.794;2023-07-30T02:07:57;19.50;99.90
21722;DHT22;11023;48.274;7.794;2023-07-30T02:10:27;19.60;99.90
21722;DHT22;11023;48.274;7.794;2023-07-30T02:12:53;19.50;99.90
21722;DHT22;11023;48.274;7.794;2023-07-30T02:15:19;19.50;99.90
21722;DHT22;11023;48.274;7.794;2023-07-30T02:17:45;19.60;99.90
21722;DHT22;11023;48.274;7.794;2023-07-30T02:20:11;19.50;99.90
21722;DHT22;11023;48.274;7.794;2023-07-30T02:22:38;19.50;99.90
21722;DHT22;11023;48.274;7.794;2023-07-30T02:25:05;19.50;99.90
21722;DHT22;11023;48.274;7.794;2023-07-30T02:27:31;19.60;99.90
21722;DHT22;11023;48.274;7.794;2023-07-30T02:29:56;19.50;99.90
21722;DHT22;11023;48.274;7.794;2023-07-30T02:32:22;19.60;99.90
21722;DHT22;11023;48.274;7.794;2023-07-30T02:34:49;19.50;99.90
21722;DHT22;11023;48.274;7.794;2023-07-30T02:37:14;19.50;99.90
21722;DHT22;11023;48.274;7.794;2023-07-30T02:39:40;19.50;99.90
21722;DHT22;11023;48.274;7.794;2023-07-30T02:42:06;19.50;99.90
21722;DHT22;11023;48.274;7.794;2023-07-30T02:44:32;19.50;99.90
21722;DHT22;11023;48.274;7.794;2023-07-30T02:46:58;19.40;99.90
21722;DHT22;11023;48.274;7.794;2023-07-30T02:49:23;19.40;99.90
21722;DHT22;11023;48.274;7.794;2023-07-30T02:51:49;19.40;99.90
21722;DHT22;11023;48.274;7.794;2023-07-30T02:54:15;19.40;99.90
21722;DHT22;11023;48.274;7.794;2023-07-30T02:56:43;19.40;99.90
21722;DHT22;11023;48.274;7.794;2023-07-30T02:59:09;19.40;99.90
21722;DHT22;11023;48.274;7.794;2023-07-30T03:01:35;19.30;99.90
21722;DHT22;11023;48.274;7.794;2023-07-30T03:04:01;19.30;99.90
21722;DHT22;11023;48.274;7.794;2023-07-30T03:06:28;19.30;99.90
21722;DHT22;11023;48.274;7.794;2023-07-30T03:08:54;19.30;99.90
21722;DHT22;11023;48.274;7.794;2023-07-30T03:11:20;19.30;99.90
21722;DHT22;11023;48.274;7.794;2023-07-30T03:13:45;19.20;99.90
21722;DHT22;11023;48.274;7.794;2023-07-30T03:16:11;19.20;99.90
21722;DHT22;11023;48.274;7.794;2023-07-30T03:18:37;19.10;99.90
21722;DHT22;11023;48.274;7.794;2023-07-30T03:21:03;19.00;99.90
21722;DHT22;11023;48.274;7.794;2023-07-30T03:23:29;19.00;99.90
21722;DHT22;11023;48.274;7.794;2023-07-30T03:25:54;19.00;99.90
21722;DHT22;11023;48.274;7.794;2023-07-30T03:28:20;18.90;99.90
21722;DHT22;11023;48.274;7.794;2023-07-30T03:30:47;18.90;99.90
21722;DHT22;11023;48.274;7.794;2023-07-30T03:33:13;18.80;99.90
21722;DHT22;11023;48.274;7.794;2023-07-30T03:35:38;18.80;99.90
21722;DHT22;11023;48.274;7.794;2023-07-30T03:38:04;18.80;99.90
21722;DHT22;11023;48.274;7.794;2023-07-30T03:40:30;18.80;99.90
21722;DHT22;11023;48.274;7.794;2023-07-30T03:42:56;18.80;99.90
21722;DHT22;11023;48.274;7.794;2023-07-30T03:45:22;18.80;99.90
21722;DHT22;11023;48.274;7.794;2023-07-30T03:47:48;18.80;99.90
21722;DHT22;11023;48.274;7.794;2023-07-30T03:50:15;18.80;99.90
21722;DHT22;11023;48.274;7.794;2023-07-30T03:52:40;18.80;99.90
21722;DHT22;11023;48.274;7.794;2023-07-30T03:55:06;18.80;99.90
21722;DHT22;11023;48.274;7.794;2023-07-30T03:57:32;18.80;99.90
21722;DHT22;11023;48.274;7.794;2023-07-30T03:59:58;18.80;99.90
21722;DHT22;11023;48.274;7.794;2023-07-30T04:02:24;18.80;99.90
21722;DHT22;11023;48.274;7.794;2023-07-30T04:04:49;18.80;99.90
21722;DHT22;11023;48.274;7.794;2023-07-30T04:07:15;18.80;99.90
21722;DHT22;11023;48.274;7.794;2023-07-30T04:09:42;18.80;99.90
21722;DHT22;11023;48.274;7.794;2023-07-30T04:12:08;18.80;99.90
21722;DHT22;11023;48.274;7.794;2023-07-30T04:14:34;18.90;99.90
21722;DHT22;11023;48.274;7.794;2023-07-30T04:16:59;18.90;99.90
21722;DHT22;11023;48.274;7.794;2023-07-30T04:19:25;19.00;99.90
21722;DHT22;11023;48.274;7.794;2023-07-30T04:21:51;19.00;99.90
21722;DHT22;11023;48.274;7.794;2023-07-30T04:24:16;19.00;99.90
21722;DHT22;11023;48.274;7.794;2023-07-30T04:26:42;19.00;99.90
21722;DHT22;11023;48.274;7.794;2023-07-30T04:29:08;18.80;99.90
21722;DHT22;11023;48.274;7.794;2023-07-30T04:31:35;18.80;99.90
21722;DHT22;11023;48.274;7.794;2023-07-30T04:34:01;18.70;99.90
21722;DHT22;11023;48.274;7.794;2023-07-30T04:36:27;18.70;99.90
21722;DHT22;11023;48.274;7.794;2023-07-30T04:38:54;18.70;99.90
21722;DHT22;11023;48.274;7.794;2023-07-30T04:41:19;18.70;99.90
21722;DHT22;11023;48.274;7.794;2023-07-30T04:43:46;18.70;99.90
21722;DHT22;11023;48.274;7.794;2023-07-30T04:46:11;18.70;99.90
21722;DHT22;11023;48.274;7.794;2023-07-30T04:48:37;18.60;99.90
21722;DHT22;11023;48.274;7.794;2023-07-30T04:51:03;18.60;99.90
21722;DHT22;11023;48.274;7.794;2023-07-30T04:53:29;18.60;99.90
21722;DHT22;11023;48.274;7.794;2023-07-30T04:55:58;18.60;99.90
21722;DHT22;11023;48.274;7.794;2023-07-30T04:58:24;18.70;99.90
21722;DHT22;11023;48.274;7.794;2023-07-30T05:00:49;18.70;99.90
21722;DHT22;11023;48.274;7.794;2023-07-30T05:03:15;18.80;99.90
21722;DHT22;11023;48.274;7.794;2023-07-30T05:05:41;18.90;99.90
21722;DHT22;11023;48.274;7.794;2023-07-30T05:08:07;19.00;99.90
21722;DHT22;11023;48.274;7.794;2023-07-30T05:10:33;19.10;99.90
21722;DHT22;11023;48.274;7.794;2023-07-30T05:12:58;19.20;99.90
21722;DHT22;11023;48.274;7.794;2023-07-30T05:15:24;19.30;99.90
21722;DHT22;11023;48.274;7.794;2023-07-30T05:17:50;19.30;99.90
21722;DHT22;11023;48.274;7.794;2023-07-30T05:20:15;19.40;99.90
21722;DHT22;11023;48.274;7.794;2023-07-30T05:22:41;19.50;99.90
21722;DHT22;11023;48.274;7.794;2023-07-30T05:25:07;19.60;99.90
21722;DHT22;11023;48.274;7.794;2023-07-30T05:27:34;19.60;99.90
21722;DHT22;11023;48.274;7.794;2023-07-30T05:30:00;19.60;99.90
21722;DHT22;11023;48.274;7.794;2023-07-30T05:32:25;19.70;99.90
21722;DHT22;11023;48.274;7.794;2023-07-30T05:34:51;19.70;99.90
21722;DHT22;11023;48.274;7.794;2023-07-30T05:37:17;19.80;99.90
21722;DHT22;11023;48.274;7.794;2023-07-30T05:39:42;19.80;99.90
21722;DHT22;11023;48.274;7.794;2023-07-30T05:42:08;19.90;99.90
21722;DHT22;11023;48.274;7.794;2023-07-30T05:44:34;20.00;99.90
21722;DHT22;11023;48.274;7.794;2023-07-30T05:46:59;20.10;99.90
21722;DHT22;11023;48.274;7.794;2023-07-30T05:49:25;20.10;99.90
21722;DHT22;11023;48.274;7.794;2023-07-30T05:51:51;20.20;99.90
21722;DHT22;11023;48.274;7.794;2023-07-30T05:54:17;20.30;99.90
21722;DHT22;11023;48.274;7.794;2023-07-30T05:56:43;20.40;99.90
21722;DHT22;11023;48.274;7.794;2023-07-30T05:59:09;20.40;99.90
21722;DHT22;11023;48.274;7.794;2023-07-30T06:01:35;20.40;99.90
21722;DHT22;11023;48.274;7.794;2023-07-30T06:04:00;20.50;99.90
21722;DHT22;11023;48.274;7.794;2023-07-30T06:06:26;20.50;99.90
21722;DHT22;11023;48.274;7.794;2023-07-30T06:08:55;20.50;99.90
21722;DHT22;11023;48.274;7.794;2023-07-30T06:11:21;20.50;99.90
21722;DHT22;11023;48.274;7.794;2023-07-30T06:13:46;20.50;99.90
21722;DHT22;11023;48.274;7.794;2023-07-30T06:16:13;20.60;99.90
21722;DHT22;11023;48.274;7.794;2023-07-30T06:18:39;20.60;99.90
21722;DHT22;11023;48.274;7.794;2023-07-30T06:21:05;20.70;99.90
21722;DHT22;11023;48.274;7.794;2023-07-30T06:23:31;20.70;99.90
21722;DHT22;11023;48.274;7.794;2023-07-30T06:25:56;20.80;99.90
21722;DHT22;11023;48.274;7.794;2023-07-30T06:28:22;20.90;99.90
21722;DHT22;11023;48.274;7.794;2023-07-30T06:30:48;20.90;99.90
21722;DHT22;11023;48.274;7.794;2023-07-30T06:33:14;21.00;99.90
21722;DHT22;11023;48.274;7.794;2023-07-30T06:35:40;21.10;99.90
21722;DHT22;11023;48.274;7.794;2023-07-30T06:38:07;21.10;99.90
21722;DHT22;11023;48.274;7.794;2023-07-30T06:40:34;21.30;99.90
21722;DHT22;11023;48.274;7.794;2023-07-30T06:42:59;21.30;99.90
21722;DHT22;11023;48.274;7.794;2023-07-30T06:45:25;21.40;99.90
21722;DHT22;11023;48.274;7.794;2023-07-30T06:47:51;21.40;99.90
21722;DHT22;11023;48.274;7.794;2023-07-30T06:50:18;21.50;99.90
21722;DHT22;11023;48.274;7.794;2023-07-30T06:52:43;21.50;99.90
21722;DHT22;11023;48.274;7.794;2023-07-30T06:55:09;21.50;99.90
21722;DHT22;11023;48.274;7.794;2023-07-30T06:57:35;21.60;99.90
21722;DHT22;11023;48.274;7.794;2023-07-30T07:00:01;21.70;99.90
21722;DHT22;11023;48.274;7.794;2023-07-30T07:02:27;21.80;99.90
21722;DHT22;11023;48.274;7.794;2023-07-30T07:04:54;21.90;99.90
21722;DHT22;11023;48.274;7.794;2023-07-30T07:07:20;22.10;99.90
21722;DHT22;11023;48.274;7.794;2023-07-30T07:09:46;22.30;99.90
21722;DHT22;11023;48.274;7.794;2023-07-30T07:12:11;22.50;99.90
21722;DHT22;11023;48.274;7.794;2023-07-30T07:14:37;22.60;99.90
21722;DHT22;11023;48.274;7.794;2023-07-30T07:17:03;22.70;99.90
21722;DHT22;11023;48.274;7.794;2023-07-30T07:19:29;22.70;99.90
21722;DHT22;11023;48.274;7.794;2023-07-30T07:21:54;22.70;99.90
21722;DHT22;11023;48.274;7.794;2023-07-30T07:24:20;22.70;99.90
21722;DHT22;11023;48.274;7.794;2023-07-30T07:26:46;22.70;99.90
21722;DHT22;11023;48.274;7.794;2023-07-30T07:29:11;22.60;99.90
21722;DHT22;11023;48.274;7.794;2023-07-30T07:31:37;22.50;99.90
21722;DHT22;11023;48.274;7.794;2023-07-30T07:34:03;22.50;99.90
21722;DHT22;11023;48.274;7.794;2023-07-30T07:36:28;22.40;99.90
21722;DHT22;11023;48.274;7.794;2023-07-30T07:38:54;22.40;99.90
21722;DHT22;11023;48.274;7.794;2023-07-30T07:41:20;22.30;99.90
21722;DHT22;11023;48.274;7.794;2023-07-30T07:43:46;22.30;99.90
21722;DHT22;11023;48.274;7.794;2023-07-30T07:46:12;22.10;99.90
21722;DHT22;11023;48.274;7.794;2023-07-30T07:48:42;21.70;99.90
21722;DHT22;11023;48.274;7.794;2023-07-30T07:51:10;21.20;99.90
21722;DHT22;11023;48.274;7.794;2023-07-30T07:53:39;20.60;99.90
21722;DHT22;11023;48.274;7.794;2023-07-30T07:56:05;20.30;99.90
21722;DHT22;11023;48.274;7.794;2023-07-30T07:58:31;20.10;99.90
21722;DHT22;11023;48.274;7.794;2023-07-30T08:00:58;20.00;99.90
21722;DHT22;11023;48.274;7.794;2023-07-30T08:03:24;20.10;99.90
21722;DHT22;11023;48.274;7.794;2023-07-30T08:05:52;20.10;99.90
21722;DHT22;11023;48.274;7.794;2023-07-30T08:08:18;20.10;99.90
21722;DHT22;11023;48.274;7.794;2023-07-30T08:10:44;20.30;99.90
21722;DHT22;11023;48.274;7.794;2023-07-30T08:13:12;20.40;99.90
21722;DHT22;11023;48.274;7.794;2023-07-30T08:15:39;20.70;99.90
21722;DHT22;11023;48.274;7.794;2023-07-30T08:18:05;20.80;99.90
21722;DHT22;11023;48.274;7.794;2023-07-30T08:20:30;20.90;99.90
21722;DHT22;11023;48.274;7.794;2023-07-30T08:22:56;21.00;99.90
21722;DHT22;11023;48.274;7.794;2023-07-30T08:25:22;21.10;99.90
21722;DHT22;11023;48.274;7.794;2023-07-30T08:27:47;21.20;99.90
21722;DHT22;11023;48.274;7.794;2023-07-30T08:30:14;21.30;99.90
21722;DHT22;11023;48.274;7.794;2023-07-30T08:32:40;21.40;99.90
21722;DHT22;11023;48.274;7.794;2023-07-30T08:35:09;21.50;99.90
21722;DHT22;11023;48.274;7.794;2023-07-30T08:37:35;21.60;99.90
21722;DHT22;11023;48.274;7.794;2023-07-30T08:40:01;21.70;99.90
21722;DHT22;11023;48.274;7.794;2023-07-30T08:42:27;21.70;99.90
21722;DHT22;11023;48.274;7.794;2023-07-30T08:44:53;21.80;99.90
21722;DHT22;11023;48.274;7.794;2023-07-30T08:47:18;21.80;99.90
21722;DHT22;11023;48.274;7.794;2023-07-30T08:49:44;21.80;99.90
21722;DHT22;11023;48.274;7.794;2023-07-30T08:52:10;22.00;99.90
21722;DHT22;11023;48.274;7.794;2023-07-30T08:54:37;22.00;99.90
21722;DHT22;11023;48.274;7.794;2023-07-30T08:57:04;22.10;99.90
21722;DHT22;11023;48.274;7.794;2023-07-30T08:59:54;22.20;99.90
21722;DHT22;11023;48.274;7.794;2023-07-30T09:02:30;22.20;99.90
21722;DHT22;11023;48.274;7.794;2023-07-30T09:04:58;22.20;99.90
21722;DHT22;11023;48.274;7.794;2023-07-30T09:07:25;22.20;99.90
21722;DHT22;11023;48.274;7.794;2023-07-30T09:09:51;22.30;99.90
21722;DHT22;11023;48.274;7.794;2023-07-30T09:12:16;22.40;99.90
21722;DHT22;11023;48.274;7.794;2023-07-30T09:14:42;22.40;99.90
21722;DHT22;11023;48.274;7.794;2023-07-30T09:17:17;22.40;99.90
21722;DHT22;11023;48.274;7.794;2023-07-30T09:19:43;22.40;99.90
21722;DHT22;11023;48.274;7.794;2023-07-30T09:22:08;22.40;99.90
21722;DHT22;11023;48.274;7.794;2023-07-30T09:24:34;22.40;99.90
21722;DHT22;11023;48.274;7.794;2023-07-30T09:27:03;22.30;99.90
21722;DHT22;11023;48.274;7.794;2023-07-30T09:29:28;22.30;99.90
21722;DHT22;11023;48.274;7.794;2023-07-30T09:31:55;22.20;99.90
21722;DHT22;11023;48.274;7.794;2023-07-30T09:34:24;22.10;99.90
21722;DHT22;11023;48.274;7.794;2023-07-30T09:36:52;22.10;99.90
21722;DHT22;11023;48.274;7.794;2023-07-30T09:39:25;22.10;99.90
21722;DHT22;11023;48.274;7.794;2023-07-30T09:41:51;22.10;99.90
21722;DHT22;11023;48.274;7.794;2023-07-30T09:44:19;22.10;99.90
21722;DHT22;11023;48.274;7.794;2023-07-30T09:46:46;22.20;99.90
21722;DHT22;11023;48.274;7.794;2023-07-30T09:49:12;22.20;99.90
21722;DHT22;11023;48.274;7.794;2023-07-30T09:51:39;22.10;99.90
21722;DHT22;11023;48.274;7.794;2023-07-30T09:54:12;22.10;99.90
21722;DHT22;11023;48.274;7.794;2023-07-30T09:56:39;22.00;99.90
21722;DHT22;11023;48.274;7.794;2023-07-30T09:59:05;21.90;99.90
21722;DHT22;11023;48.274;7.794;2023-07-30T10:01:33;21.90;99.90
21722;DHT22;11023;48.274;7.794;2023-07-30T10:04:07;21.80;99.90
21722;DHT22;11023;48.274;7.794;2023-07-30T10:06:38;21.80;99.90
21722;DHT22;11023;48.274;7.794;2023-07-30T10:09:05;21.70;99.90
21722;DHT22;11023;48.274;7.794;2023-07-30T10:11:32;21.70;99.90
21722;DHT22;11023;48.274;7.794;2023-07-30T10:13:59;21.60;99.90
21722;DHT22;11023;48.274;7.794;2023-07-30T10:16:29;21.50;99.90
21722;DHT22;11023;48.274;7.794;2023-07-30T10:18:58;21.50;99.90
21722;DHT22;11023;48.274;7.794;2023-07-30T10:21:25;21.40;99.90
21722;DHT22;11023;48.274;7.794;2023-07-30T10:26:35;21.40;99.90
21722;DHT22;11023;48.274;7.794;2023-07-30T10:31:42;21.50;99.90
21722;DHT22;11023;48.274;7.794;2023-07-30T10:34:09;21.60;99.90
21722;DHT22;11023;48.274;7.794;2023-07-30T10:36:44;21.80;99.90
21722;DHT22;11023;48.274;7.794;2023-07-30T10:39:21;22.00;99.90
21722;DHT22;11023;48.274;7.794;2023-07-30T10:41:51;22.10;99.90
21722;DHT22;11023;48.274;7.794;2023-07-30T10:44:46;22.20;99.90
21722;DHT22;11023;48.274;7.794;2023-07-30T10:47:12;22.40;99.90
21722;DHT22;11023;48.274;7.794;2023-07-30T10:49:39;22.60;99.90
21722;DHT22;11023;48.274;7.794;2023-07-30T10:52:06;22.80;99.90
21722;DHT22;11023;48.274;7.794;2023-07-30T10:54:35;23.10;99.90
21722;DHT22;11023;48.274;7.794;2023-07-30T10:57:02;23.30;99.90
21722;DHT22;11023;48.274;7.794;2023-07-30T10:59:36;23.40;99.90
21722;DHT22;11023;48.274;7.794;2023-07-30T11:02:03;23.60;99.90
21722;DHT22;11023;48.274;7.794;2023-07-30T11:04:29;23.70;99.90
21722;DHT22;11023;48.274;7.794;2023-07-30T11:06:58;23.80;99.90
21722;DHT22;11023;48.274;7.794;2023-07-30T11:09:25;23.80;99.90
21722;DHT22;11023;48.274;7.794;2023-07-30T11:11:53;23.80;99.90
21722;DHT22;11023;48.274;7.794;2023-07-30T11:14:23;23.90;99.90
21722;DHT22;11023;48.274;7.794;2023-07-30T11:16:58;23.80;99.90
21722;DHT22;11023;48.274;7.794;2023-07-30T11:19:24;24.00;99.90
21722;DHT22;11023;48.274;7.794;2023-07-30T11:21:51;24.00;99.90
21722;DHT22;11023;48.274;7.794;2023-07-30T11:24:17;23.90;99.90
21722;DHT22;11023;48.274;7.794;2023-07-30T11:26:44;24.00;99.90
21722;DHT22;11023;48.274;7.794;2023-07-30T11:29:16;23.90;99.90
21722;DHT22;11023;48.274;7.794;2023-07-30T11:31:46;23.80;99.90
21722;DHT22;11023;48.274;7.794;2023-07-30T11:34:15;23.90;99.90
21722;DHT22;11023;48.274;7.794;2023-07-30T11:36:42;24.00;99.90
21722;DHT22;11023;48.274;7.794;2023-07-30T11:39:09;24.10;99.90
21722;DHT22;11023;48.274;7.794;2023-07-30T11:41:35;24.00;99.90
21722;DHT22;11023;48.274;7.794;2023-07-30T11:44:02;23.90;99.90
21722;DHT22;11023;48.274;7.794;2023-07-30T11:46:28;23.60;99.90
21722;DHT22;11023;48.274;7.794;2023-07-30T11:49:11;23.50;99.90
21722;DHT22;11023;48.274;7.794;2023-07-30T11:51:38;23.30;99.90
21722;DHT22;11023;48.274;7.794;2023-07-30T11:54:03;23.30;99.90
21722;DHT22;11023;48.274;7.794;2023-07-30T11:56:33;23.40;99.90
21722;DHT22;11023;48.274;7.794;2023-07-30T11:59:05;23.40;99.90
21722;DHT22;11023;48.274;7.794;2023-07-30T12:01:34;23.60;99.90
21722;DHT22;11023;48.274;7.794;2023-07-30T12:04:01;23.80;99.90
21722;DHT22;11023;48.274;7.794;2023-07-30T12:06:47;24.00;99.90
21722;DHT22;11023;48.274;7.794;2023-07-30T12:09:13;24.00;99.90
21722;DHT22;11023;48.274;7.794;2023-07-30T12:11:58;23.90;99.90
21722;DHT22;11023;48.274;7.794;2023-07-30T12:14:29;23.80;99.90
21722;DHT22;11023;48.274;7.794;2023-07-30T12:17:07;23.80;99.90
21722;DHT22;11023;48.274;7.794;2023-07-30T12:19:32;24.00;99.90
21722;DHT22;11023;48.274;7.794;2023-07-30T12:21:58;24.20;99.90
21722;DHT22;11023;48.274;7.794;2023-07-30T12:24:24;24.30;99.90
21722;DHT22;11023;48.274;7.794;2023-07-30T12:26:49;24.30;99.90
21722;DHT22;11023;48.274;7.794;2023-07-30T12:29:15;24.20;99.90
21722;DHT22;11023;48.274;7.794;2023-07-30T12:31:41;24.40;99.90
21722;DHT22;11023;48.274;7.794;2023-07-30T12:34:06;24.50;99.90
21722;DHT22;11023;48.274;7.794;2023-07-30T12:36:32;24.70;99.90
21722;DHT22;11023;48.274;7.794;2023-07-30T12:38:57;24.90;99.90
21722;DHT22;11023;48.274;7.794;2023-07-30T12:41:23;25.10;99.90
21722;DHT22;11023;48.274;7.794;2023-07-30T12:43:52;25.10;99.90
21722;DHT22;11023;48.274;7.794;2023-07-30T12:46:18;25.20;99.90
21722;DHT22;11023;48.274;7.794;2023-07-30T12:48:44;25.10;99.90
21722;DHT22;11023;48.274;7.794;2023-07-30T12:51:10;24.80;99.90
21722;DHT22;11023;48.274;7.794;2023-07-30T12:53:35;24.60;99.90
21722;DHT22;11023;48.274;7.794;2023-07-30T12:56:01;24.60;99.90
21722;DHT22;11023;48.274;7.794;2023-07-30T12:58:27;24.50;99.90
21722;DHT22;11023;48.274;7.794;2023-07-30T13:00:52;24.40;99.90
21722;DHT22;11023;48.274;7.794;2023-07-30T13:03:18;24.40;99.90
21722;DHT22;11023;48.274;7.794;2023-07-30T13:05:44;24.60;99.90
21722;DHT22;11023;48.274;7.794;2023-07-30T13:08:09;24.70;99.90
21722;DHT22;11023;48.274;7.794;2023-07-30T13:10:35;24.90;99.90
21722;DHT22;11023;48.274;7.794;2023-07-30T13:13:01;25.00;99.90
21722;DHT22;11023;48.274;7.794;2023-07-30T13:15:26;25.10;99.90
21722;DHT22;11023;48.274;7.794;2023-07-30T13:17:53;25.30;99.90
21722;DHT22;11023;48.274;7.794;2023-07-30T13:20:19;25.20;99.90
21722;DHT22;11023;48.274;7.794;2023-07-30T13:22:45;25.30;99.90
21722;DHT22;11023;48.274;7.794;2023-07-30T13:25:10;25.20;99.90
21722;DHT22;11023;48.274;7.794;2023-07-30T13:27:36;25.00;99.90
21722;DHT22;11023;48.274;7.794;2023-07-30T13:30:02;24.90;99.90
21722;DHT22;11023;48.274;7.794;2023-07-30T13:32:28;24.70;99.90
21722;DHT22;11023;48.274;7.794;2023-07-30T13:34:53;24.70;99.90
21722;DHT22;11023;48.274;7.794;2023-07-30T13:37:19;24.80;99.90
21722;DHT22;11023;48.274;7.794;2023-07-30T13:39:45;24.90;99.90
21722;DHT22;11023;48.274;7.794;2023-07-30T13:42:11;24.90;99.90
21722;DHT22;11023;48.274;7.794;2023-07-30T13:44:37;25.00;99.90
21722;DHT22;11023;48.274;7.794;2023-07-30T13:47:02;25.10;99.90
21722;DHT22;11023;48.274;7.794;2023-07-30T13:49:28;25.10;99.90
21722;DHT22;11023;48.274;7.794;2023-07-30T13:51:54;25.20;99.90
21722;DHT22;11023;48.274;7.794;2023-07-30T13:54:19;25.40;99.90
21722;DHT22;11023;48.274;7.794;2023-07-30T13:56:45;25.50;99.90
21722;DHT22;11023;48.274;7.794;2023-07-30T13:59:10;25.70;99.90
21722;DHT22;11023;48.274;7.794;2023-07-30T14:01:36;25.80;99.90
21722;DHT22;11023;48.274;7.794;2023-07-30T14:04:02;26.00;99.90
21722;DHT22;11023;48.274;7.794;2023-07-30T14:06:31;26.10;99.90
21722;DHT22;11023;48.274;7.794;2023-07-30T14:09:01;26.00;99.90
21722;DHT22;11023;48.274;7.794;2023-07-30T14:11:27;25.90;99.90
21722;DHT22;11023;48.274;7.794;2023-07-30T14:13:53;26.10;99.90
21722;DHT22;11023;48.274;7.794;2023-07-30T14:16:19;26.20;99.90
21722;DHT22;11023;48.274;7.794;2023-07-30T14:18:44;26.40;99.90
21722;DHT22;11023;48.274;7.794;2023-07-30T14:21:10;26.40;99.90
21722;DHT22;11023;48.274;7.794;2023-07-30T14:23:37;26.50;99.90
21722;DHT22;11023;48.274;7.794;2023-07-30T14:26:05;26.50;99.90
21722;DHT22;11023;48.274;7.794;2023-07-30T14:28:32;26.60;99.90
21722;DHT22;11023;48.274;7.794;2023-07-30T14:30:58;26.80;99.90
21722;DHT22;11023;48.274;7.794;2023-07-30T14:33:24;26.80;99.90
21722;DHT22;11023;48.274;7.794;2023-07-30T14:35:49;27.00;99.90
21722;DHT22;11023;48.274;7.794;2023-07-30T14:38:15;27.00;99.90
21722;DHT22;11023;48.274;7.794;2023-07-30T14:40:43;26.90;99.90
21722;DHT22;11023;48.274;7.794;2023-07-30T14:43:09;27.10;99.90
21722;DHT22;11023;48.274;7.794;2023-07-30T14:45:34;27.10;99.90
21722;DHT22;11023;48.274;7.794;2023-07-30T14:48:00;27.00;99.90
21722;DHT22;11023;48.274;7.794;2023-07-30T14:50:26;27.00;99.90
21722;DHT22;11023;48.274;7.794;2023-07-30T14:52:52;26.90;99.90
21722;DHT22;11023;48.274;7.794;2023-07-30T14:55:18;26.80;99.90
21722;DHT22;11023;48.274;7.794;2023-07-30T14:57:44;26.80;99.90
21722;DHT22;11023;48.274;7.794;2023-07-30T15:00:10;26.80;99.90
21722;DHT22;11023;48.274;7.794;2023-07-30T15:02:38;26.80;99.90
21722;DHT22;11023;48.274;7.794;2023-07-30T15:05:04;26.80;99.90
21722;DHT22;11023;48.274;7.794;2023-07-30T15:07:30;26.90;99.90
21722;DHT22;11023;48.274;7.794;2023-07-30T15:09:56;27.00;99.90
21722;DHT22;11023;48.274;7.794;2023-07-30T15:12:22;27.00;99.90
21722;DHT22;11023;48.274;7.794;2023-07-30T15:14:47;27.00;99.90
21722;DHT22;11023;48.274;7.794;2023-07-30T15:17:13;27.00;99.90
21722;DHT22;11023;48.274;7.794;2023-07-30T15:19:39;27.10;99.90
21722;DHT22;11023;48.274;7.794;2023-07-30T15:22:05;27.00;99.90
21722;DHT22;11023;48.274;7.794;2023-07-30T15:24:31;26.90;99.90
21722;DHT22;11023;48.274;7.794;2023-07-30T15:26:57;27.00;99.90
21722;DHT22;11023;48.274;7.794;2023-07-30T15:29:23;27.00;99.90
21722;DHT22;11023;48.274;7.794;2023-07-30T15:31:49;27.10;99.90
21722;DHT22;11023;48.274;7.794;2023-07-30T15:34:15;27.30;99.90